createdAt,value
2017-01-27T00:00:12.535Z,0
2017-01-27T00:01:13.242Z,0
2017-01-27T00:02:13.928Z,0
2017-01-27T00:03:14.815Z,0
2017-01-27T00:04:15.490Z,0
2017-01-27T00:05:16.225Z,0
2017-01-27T00:06:16.913Z,0
2017-01-27T00:07:17.595Z,0
2017-01-27T00:08:18.302Z,0
2017-01-27T00:09:18.981Z,0
2017-01-27T00:10:19.665Z,0
2017-01-27T00:11:20.863Z,0
2017-01-27T00:12:21.550Z,0
2017-01-27T00:13:22.261Z,0
2017-01-27T00:14:22.952Z,0
2017-01-27T00:15:23.651Z,0
2017-01-27T00:16:24.333Z,0
2017-01-27T00:17:25.033Z,0
2017-01-27T00:18:25.711Z,0
2017-01-27T00:19:26.391Z,0
2017-01-27T00:20:27.149Z,0
2017-01-27T00:21:27.852Z,0
2017-01-27T00:22:28.570Z,0
2017-01-27T00:23:29.356Z,0
2017-01-27T00:24:30.063Z,0
2017-01-27T00:25:30.754Z,0
2017-01-27T00:26:31.573Z,0
2017-01-27T00:27:32.269Z,0
2017-01-27T00:28:32.994Z,0
2017-01-27T00:29:33.666Z,0
2017-01-27T00:30:34.369Z,0
2017-01-27T00:31:35.063Z,0
2017-01-27T00:32:35.762Z,0
2017-01-27T00:33:36.458Z,0
2017-01-27T00:34:37.159Z,0
2017-01-27T00:35:37.838Z,0
2017-01-27T00:36:38.539Z,0
2017-01-27T00:37:39.223Z,0
2017-01-27T00:38:39.898Z,0
2017-01-27T00:39:40.584Z,0
2017-01-27T00:40:41.267Z,0
2017-01-27T00:41:41.953Z,0
2017-01-27T00:42:42.643Z,0
2017-01-27T00:43:43.345Z,0
2017-01-27T00:44:44.044Z,0
2017-01-27T00:45:44.744Z,0
2017-01-27T00:46:45.432Z,0
2017-01-27T00:47:46.109Z,0
2017-01-27T00:48:46.789Z,0
2017-01-27T00:49:47.499Z,0
2017-01-27T00:50:48.192Z,0
2017-01-27T00:51:48.889Z,0
2017-01-27T00:52:49.579Z,0
2017-01-27T00:53:50.266Z,0
2017-01-27T00:54:50.954Z,0
2017-01-27T00:55:51.655Z,0
2017-01-27T00:56:52.343Z,0
2017-01-27T00:57:53.058Z,0
2017-01-27T00:58:53.750Z,0
2017-01-27T00:59:54.431Z,0
2017-01-27T01:00:55.113Z,0
2017-01-27T01:01:55.789Z,0
2017-01-27T01:02:56.508Z,0
2017-01-27T01:03:57.214Z,0
2017-01-27T01:04:57.887Z,0
2017-01-27T01:05:58.571Z,0
2017-01-27T01:06:59.255Z,0
2017-01-27T01:07:59.945Z,0
2017-01-27T01:09:00.614Z,0
2017-01-27T01:10:01.306Z,0
2017-01-27T01:11:01.961Z,0
2017-01-27T01:12:02.645Z,0
2017-01-27T01:13:03.329Z,0
2017-01-27T01:14:03.991Z,0
2017-01-27T01:15:05.204Z,0
2017-01-27T01:16:05.908Z,0
2017-01-27T01:17:06.605Z,0
2017-01-27T01:18:07.452Z,0
2017-01-27T01:19:08.305Z,0
2017-01-27T01:20:08.973Z,0
2017-01-27T01:21:09.688Z,0
2017-01-27T01:22:10.741Z,0
2017-01-27T01:23:11.650Z,0
2017-01-27T01:24:12.373Z,0
2017-01-27T01:25:13.120Z,0
2017-01-27T01:26:13.838Z,0
2017-01-27T01:27:14.524Z,0
2017-01-27T01:28:15.292Z,0
2017-01-27T01:29:16.008Z,0
2017-01-27T01:30:16.713Z,0
2017-01-27T01:31:17.568Z,0
2017-01-27T01:32:18.591Z,0
2017-01-27T01:33:18.955Z,0
2017-01-27T01:34:19.624Z,0
2017-01-27T01:35:20.310Z,0
2017-01-27T01:36:20.983Z,0
2017-01-27T01:37:21.986Z,0
2017-01-27T01:38:22.589Z,0
2017-01-27T01:39:23.395Z,0
2017-01-27T01:40:24.073Z,0
2017-01-27T01:41:24.839Z,0
2017-01-27T01:42:25.812Z,0
2017-01-27T01:43:26.773Z,0
2017-01-27T01:44:27.555Z,0
2017-01-27T01:45:28.278Z,0
2017-01-27T01:46:29.014Z,0
2017-01-27T01:47:29.786Z,0
2017-01-27T01:48:30.467Z,0
2017-01-27T01:49:31.401Z,0
2017-01-27T01:50:32.125Z,0
2017-01-27T01:51:32.888Z,0
2017-01-27T01:52:33.613Z,0
2017-01-27T01:53:34.470Z,0
2017-01-27T01:54:35.183Z,0
2017-01-27T01:55:35.875Z,0
2017-01-27T01:56:36.580Z,0
2017-01-27T01:57:37.272Z,0
2017-01-27T01:58:38.320Z,0
2017-01-27T01:59:39.080Z,0
2017-01-27T02:00:39.818Z,0
2017-01-27T02:01:40.657Z,0
2017-01-27T02:02:41.384Z,0
2017-01-27T02:03:42.344Z,0
2017-01-27T02:04:42.846Z,0
2017-01-27T02:05:43.522Z,0
2017-01-27T02:06:44.371Z,0
2017-01-27T02:07:45.126Z,0
2017-01-27T02:08:45.819Z,0
2017-01-27T02:09:46.782Z,0
2017-01-27T02:10:47.458Z,0
2017-01-27T02:11:48.354Z,0
2017-01-27T02:12:49.267Z,0
2017-01-27T02:13:50.535Z,0
2017-01-27T02:14:51.427Z,0
2017-01-27T02:15:52.026Z,0
2017-01-27T02:16:52.761Z,0
2017-01-27T02:17:53.435Z,0
2017-01-27T02:18:54.111Z,0
2017-01-27T02:19:55.425Z,0
2017-01-27T02:20:56.665Z,0
2017-01-27T02:21:57.294Z,0
2017-01-27T02:22:58.035Z,0
2017-01-27T02:23:58.773Z,0
2017-01-27T02:24:59.523Z,0
2017-01-27T02:26:00.307Z,0
2017-01-27T02:27:01.049Z,0
2017-01-27T02:28:01.855Z,0
2017-01-27T02:29:02.685Z,0
2017-01-27T02:30:03.621Z,0
2017-01-27T02:31:04.190Z,0
2017-01-27T02:32:05.036Z,0
2017-01-27T02:33:05.874Z,0
2017-01-27T02:34:06.758Z,0
2017-01-27T02:35:07.766Z,0
2017-01-27T02:36:08.536Z,0
2017-01-27T02:37:09.246Z,0
2017-01-27T02:38:10.031Z,0
2017-01-27T02:39:11.088Z,0
2017-01-27T02:40:11.763Z,0
2017-01-27T02:41:12.450Z,0
2017-01-27T02:42:13.224Z,0
2017-01-27T02:43:13.989Z,0
2017-01-27T02:44:14.903Z,0
2017-01-27T02:45:15.633Z,0
2017-01-27T02:46:16.316Z,0
2017-01-27T02:47:17.096Z,0
2017-01-27T02:48:17.892Z,0
2017-01-27T02:49:18.662Z,0
2017-01-27T02:50:20.353Z,0
2017-01-27T02:51:20.902Z,0
2017-01-27T02:52:21.736Z,0
2017-01-27T02:53:22.306Z,0
2017-01-27T02:54:23.340Z,0
2017-01-27T02:55:23.993Z,0
2017-01-27T02:56:24.780Z,0
2017-01-27T02:57:25.640Z,0
2017-01-27T02:58:26.224Z,0
2017-01-27T02:59:26.990Z,0
2017-01-27T03:00:27.656Z,0
2017-01-27T03:01:28.344Z,0
2017-01-27T03:02:29.009Z,0
2017-01-27T03:03:29.900Z,0
2017-01-27T03:04:30.527Z,0
2017-01-27T03:05:31.261Z,0
2017-01-27T03:06:31.978Z,0
2017-01-27T03:07:32.662Z,0
2017-01-27T03:08:33.360Z,0
2017-01-27T03:09:34.132Z,0
2017-01-27T03:10:34.818Z,0
2017-01-27T03:11:35.505Z,0
2017-01-27T03:12:36.497Z,0
2017-01-27T03:13:37.303Z,0
2017-01-27T03:14:37.914Z,0
2017-01-27T03:15:38.673Z,0
2017-01-27T03:16:39.676Z,0
2017-01-27T03:17:40.271Z,0
2017-01-27T03:18:41.015Z,0
2017-01-27T03:19:41.855Z,0
2017-01-27T03:20:42.614Z,0
2017-01-27T03:21:43.306Z,0
2017-01-27T03:22:43.991Z,0
2017-01-27T03:23:44.696Z,0
2017-01-27T03:24:45.384Z,0
2017-01-27T03:25:46.606Z,0
2017-01-27T03:26:47.260Z,0
2017-01-27T03:27:47.976Z,0
2017-01-27T03:28:48.646Z,0
2017-01-27T03:29:49.353Z,0
2017-01-27T03:30:50.049Z,0
2017-01-27T03:31:50.715Z,0
2017-01-27T03:32:51.392Z,0
2017-01-27T03:33:52.059Z,0
2017-01-27T03:34:52.719Z,0
2017-01-27T03:35:53.404Z,0
2017-01-27T03:36:54.077Z,0
2017-01-27T03:37:54.751Z,0
2017-01-27T03:38:55.428Z,0
2017-01-27T03:39:56.093Z,0
2017-01-27T03:40:56.762Z,0
2017-01-27T03:41:57.447Z,0
2017-01-27T03:42:58.119Z,0
2017-01-27T03:43:58.821Z,0
2017-01-27T03:44:59.496Z,0
2017-01-27T03:46:00.169Z,0
2017-01-27T03:47:00.856Z,0
2017-01-27T03:48:01.530Z,0
2017-01-27T03:49:02.203Z,0
2017-01-27T03:50:02.874Z,0
2017-01-27T03:51:03.553Z,0
2017-01-27T03:52:04.233Z,0
2017-01-27T03:53:04.900Z,0
2017-01-27T03:54:05.566Z,0
2017-01-27T03:55:06.238Z,0
2017-01-27T03:56:06.929Z,0
2017-01-27T03:57:07.608Z,0
2017-01-27T03:58:08.273Z,0
2017-01-27T03:59:08.953Z,0
2017-01-27T04:00:09.639Z,0
2017-01-27T04:01:10.323Z,0
2017-01-27T04:02:10.986Z,0
2017-01-27T04:03:11.830Z,0
2017-01-27T04:04:12.499Z,0
2017-01-27T04:05:13.183Z,0
2017-01-27T04:06:13.889Z,0
2017-01-27T04:07:14.560Z,0
2017-01-27T04:08:15.220Z,0
2017-01-27T04:09:15.892Z,0
2017-01-27T04:10:16.577Z,0
2017-01-27T04:11:17.244Z,0
2017-01-27T04:12:17.927Z,0
2017-01-27T04:13:18.640Z,0
2017-01-27T04:14:19.289Z,0
2017-01-27T04:15:19.958Z,0
2017-01-27T04:16:20.647Z,0
2017-01-27T04:17:21.322Z,0
2017-01-27T04:18:22.000Z,0
2017-01-27T04:19:22.686Z,0
2017-01-27T04:20:23.384Z,0
2017-01-27T04:21:24.070Z,0
2017-01-27T04:22:24.744Z,0
2017-01-27T04:23:25.421Z,0
2017-01-27T04:24:26.103Z,0
2017-01-27T04:25:26.770Z,0
2017-01-27T04:26:27.440Z,0
2017-01-27T04:27:28.114Z,0
2017-01-27T04:28:28.801Z,0
2017-01-27T04:29:29.483Z,0
2017-01-27T04:30:30.156Z,0
2017-01-27T04:31:30.837Z,0
2017-01-27T04:32:31.521Z,0
2017-01-27T04:33:32.228Z,0
2017-01-27T04:34:32.900Z,0
2017-01-27T04:35:33.570Z,0
2017-01-27T04:36:34.244Z,0
2017-01-27T04:37:34.913Z,0
2017-01-27T04:38:35.580Z,0
2017-01-27T04:39:36.255Z,0
2017-01-27T04:40:36.920Z,0
2017-01-27T04:41:37.596Z,0
2017-01-27T04:42:38.271Z,0
2017-01-27T04:43:38.945Z,0
2017-01-27T04:44:39.664Z,0
2017-01-27T04:45:40.335Z,0
2017-01-27T04:46:41.010Z,0
2017-01-27T04:47:41.686Z,0
2017-01-27T04:48:42.371Z,0
2017-01-27T04:49:43.058Z,0
2017-01-27T04:50:43.745Z,0
2017-01-27T04:51:44.428Z,0
2017-01-27T04:52:45.145Z,0
2017-01-27T04:53:45.832Z,0
2017-01-27T04:54:46.503Z,0
2017-01-27T04:55:47.174Z,0
2017-01-27T04:56:47.850Z,0
2017-01-27T04:57:48.514Z,0
2017-01-27T04:58:49.182Z,0
2017-01-27T04:59:49.934Z,0
2017-01-27T05:00:50.635Z,0
2017-01-27T05:01:51.318Z,0
2017-01-27T05:02:52.003Z,0
2017-01-27T05:03:52.884Z,0
2017-01-27T05:04:53.576Z,0
2017-01-27T05:05:54.254Z,0
2017-01-27T05:06:54.923Z,0
2017-01-27T05:07:55.588Z,0
2017-01-27T05:08:56.271Z,0
2017-01-27T05:09:56.941Z,0
2017-01-27T05:10:57.607Z,0
2017-01-27T05:11:58.289Z,0
2017-01-27T05:12:59.001Z,0
2017-01-27T05:13:59.738Z,0
2017-01-27T05:15:00.417Z,0
2017-01-27T05:16:01.131Z,0
2017-01-27T05:17:01.828Z,0
2017-01-27T05:18:02.497Z,0
2017-01-27T05:19:03.181Z,0
2017-01-27T05:20:03.865Z,0
2017-01-27T05:21:04.548Z,0
2017-01-27T05:22:05.226Z,0
2017-01-27T05:23:05.890Z,0
2017-01-27T05:24:06.559Z,0
2017-01-27T05:25:07.233Z,0
2017-01-27T05:26:07.967Z,0
2017-01-27T05:27:08.659Z,0
2017-01-27T05:28:09.351Z,0
2017-01-27T05:29:10.030Z,0
2017-01-27T05:30:10.698Z,0
2017-01-27T05:31:11.373Z,0
2017-01-27T05:32:12.052Z,0
2017-01-27T05:33:12.722Z,0
2017-01-27T05:34:13.387Z,0
2017-01-27T05:35:14.086Z,0
2017-01-27T05:36:14.766Z,0
2017-01-27T05:37:15.493Z,0
2017-01-27T05:38:16.192Z,0
2017-01-27T05:39:16.865Z,0
2017-01-27T05:40:17.534Z,0
2017-01-27T05:41:18.204Z,0
2017-01-27T05:42:18.880Z,0
2017-01-27T05:43:19.549Z,0
2017-01-27T05:44:20.254Z,0
2017-01-27T05:45:20.918Z,0
2017-01-27T05:46:21.610Z,0
2017-01-27T05:47:22.293Z,0
2017-01-27T05:48:22.972Z,0
2017-01-27T05:49:23.647Z,0
2017-01-27T05:50:24.371Z,0
2017-01-27T05:51:25.045Z,0
2017-01-27T05:52:25.720Z,0
2017-01-27T05:53:26.429Z,0
2017-01-27T05:54:27.094Z,0
2017-01-27T05:55:27.769Z,0
2017-01-27T05:56:28.451Z,0
2017-01-27T05:57:29.150Z,0
2017-01-27T05:58:29.834Z,0
2017-01-27T05:59:30.538Z,0
2017-01-27T06:00:31.207Z,0
2017-01-27T06:01:31.897Z,0
2017-01-27T06:02:32.570Z,0
2017-01-27T06:03:33.248Z,0
2017-01-27T06:04:33.934Z,0
2017-01-27T06:05:34.613Z,0
2017-01-27T06:06:35.288Z,0
2017-01-27T06:07:35.985Z,0
2017-01-27T06:08:36.657Z,0
2017-01-27T06:09:37.335Z,0
2017-01-27T06:10:38.007Z,0
2017-01-27T06:11:38.678Z,0
2017-01-27T06:12:39.346Z,0
2017-01-27T06:13:40.029Z,0
2017-01-27T06:14:40.711Z,0
2017-01-27T06:15:41.394Z,0
2017-01-27T06:16:42.080Z,0
2017-01-27T06:17:42.793Z,0
2017-01-27T06:18:43.491Z,0
2017-01-27T06:19:44.167Z,0
2017-01-27T06:20:44.856Z,0
2017-01-27T06:21:45.539Z,0
2017-01-27T06:22:46.217Z,0
2017-01-27T06:23:46.901Z,0
2017-01-27T06:24:47.564Z,0
2017-01-27T06:25:48.246Z,0
2017-01-27T06:26:48.920Z,0
2017-01-27T06:27:49.589Z,0
2017-01-27T06:28:50.262Z,0
2017-01-27T06:29:50.943Z,0
2017-01-27T06:30:51.617Z,0
2017-01-27T06:31:52.302Z,4
2017-01-27T06:32:52.989Z,0
2017-01-27T06:33:53.669Z,0
2017-01-27T06:34:54.362Z,0
2017-01-27T06:35:55.054Z,4
2017-01-27T06:36:55.731Z,4
2017-01-27T06:37:56.434Z,0
2017-01-27T06:38:57.099Z,4
2017-01-27T06:39:57.824Z,4
2017-01-27T06:40:58.503Z,4
2017-01-27T06:41:59.208Z,4
2017-01-27T06:42:59.877Z,4
2017-01-27T06:44:00.549Z,8
2017-01-27T06:45:01.239Z,8
2017-01-27T06:46:01.929Z,12
2017-01-27T06:47:02.619Z,12
2017-01-27T06:48:03.301Z,12
2017-01-27T06:49:03.982Z,16
2017-01-27T06:50:04.666Z,20
2017-01-27T06:51:05.342Z,20
2017-01-27T06:52:06.034Z,24
2017-01-27T06:53:06.715Z,32
2017-01-27T06:54:07.443Z,36
2017-01-27T06:55:08.295Z,44
2017-01-27T06:56:08.993Z,52
2017-01-27T06:57:09.683Z,60
2017-01-27T06:58:10.381Z,64
2017-01-27T06:59:11.041Z,76
2017-01-27T07:00:11.712Z,88
2017-01-27T07:01:12.403Z,100
2017-01-27T07:02:13.113Z,108
2017-01-27T07:03:13.797Z,124
2017-01-27T07:04:14.495Z,140
2017-01-27T07:05:15.216Z,156
2017-01-27T07:06:15.892Z,172
2017-01-27T07:07:16.586Z,192
2017-01-27T07:08:17.255Z,208
2017-01-27T07:09:17.948Z,228
2017-01-27T07:10:18.633Z,252
2017-01-27T07:11:19.307Z,272
2017-01-27T07:12:19.978Z,296
2017-01-27T07:13:20.664Z,320
2017-01-27T07:14:21.342Z,344
2017-01-27T07:15:22.053Z,372
2017-01-27T07:16:22.758Z,396
2017-01-27T07:17:23.437Z,424
2017-01-27T07:18:24.138Z,452
2017-01-27T07:19:24.842Z,484
2017-01-27T07:20:25.551Z,512
2017-01-27T07:21:26.273Z,544
2017-01-27T07:22:26.968Z,576
2017-01-27T07:23:27.677Z,612
2017-01-27T07:24:28.392Z,648
2017-01-27T07:25:29.071Z,684
2017-01-27T07:26:29.758Z,720
2017-01-27T07:27:30.457Z,756
2017-01-27T07:28:31.132Z,796
2017-01-27T07:29:31.806Z,832
2017-01-27T07:30:32.489Z,880
2017-01-27T07:31:33.168Z,916
2017-01-27T07:32:33.881Z,956
2017-01-27T07:33:34.567Z,996
2017-01-27T07:34:35.233Z,1040
2017-01-27T07:35:35.936Z,1076
2017-01-27T07:36:36.607Z,1112
2017-01-27T07:37:37.283Z,1160
2017-01-27T07:38:37.964Z,1204
2017-01-27T07:39:38.766Z,1252
2017-01-27T07:40:39.423Z,1292
2017-01-27T07:41:40.093Z,1336
2017-01-27T07:42:40.761Z,1372
2017-01-27T07:43:41.423Z,1424
2017-01-27T07:44:42.105Z,1500
2017-01-27T07:45:42.773Z,1564
2017-01-27T07:46:43.442Z,1612
2017-01-27T07:47:44.124Z,1636
2017-01-27T07:48:44.794Z,1696
2017-01-27T07:49:45.479Z,1704
2017-01-27T07:50:46.149Z,1744
2017-01-27T07:51:46.827Z,1788
2017-01-27T07:52:47.521Z,1832
2017-01-27T07:53:48.216Z,1888
2017-01-27T07:54:48.903Z,1932
2017-01-27T07:55:49.598Z,1984
2017-01-27T07:56:50.282Z,2020
2017-01-27T07:57:50.958Z,2068
2017-01-27T07:58:51.635Z,2108
2017-01-27T07:59:52.369Z,2144
2017-01-27T08:00:53.064Z,2168
2017-01-27T08:01:53.798Z,2212
2017-01-27T08:02:54.453Z,2248
2017-01-27T08:03:55.128Z,2296
2017-01-27T08:04:55.822Z,2332
2017-01-27T08:05:56.499Z,2372
2017-01-27T08:06:57.213Z,2384
2017-01-27T08:07:57.900Z,2448
2017-01-27T08:08:58.605Z,2492
2017-01-27T08:09:59.282Z,2524
2017-01-27T08:10:59.984Z,2548
2017-01-27T08:12:00.671Z,2580
2017-01-27T08:13:01.389Z,2612
2017-01-27T08:14:02.091Z,2648
2017-01-27T08:15:02.769Z,2672
2017-01-27T08:16:03.499Z,2704
2017-01-27T08:17:04.247Z,2744
2017-01-27T08:18:06.355Z,2764
2017-01-27T08:19:07.531Z,2808
2017-01-27T08:20:08.224Z,2872
2017-01-27T08:21:08.934Z,2892
2017-01-27T08:22:09.605Z,2972
2017-01-27T08:23:10.272Z,3136
2017-01-27T08:24:10.946Z,3240
2017-01-27T08:25:11.650Z,3160
2017-01-27T08:26:12.330Z,3136
2017-01-27T08:27:13.017Z,3260
2017-01-27T08:28:13.687Z,3348
2017-01-27T08:29:14.373Z,3276
2017-01-27T08:30:15.053Z,3500
2017-01-27T08:31:15.723Z,3756
2017-01-27T08:32:16.408Z,3668
2017-01-27T08:33:17.093Z,3604
2017-01-27T08:34:17.780Z,3628
2017-01-27T08:35:18.475Z,3448
2017-01-27T08:36:19.180Z,3352
2017-01-27T08:37:19.857Z,3572
2017-01-27T08:38:20.525Z,3628
2017-01-27T08:39:21.216Z,3560
2017-01-27T08:40:21.882Z,3536
2017-01-27T08:41:22.598Z,3768
2017-01-27T08:42:23.306Z,4224
2017-01-27T08:43:23.983Z,4460
2017-01-27T08:44:24.663Z,4564
2017-01-27T08:45:25.367Z,4176
2017-01-27T08:46:26.042Z,4120
2017-01-27T08:47:26.719Z,4324
2017-01-27T08:48:27.407Z,4732
2017-01-27T08:49:28.095Z,5196
2017-01-27T08:50:28.775Z,5188
2017-01-27T08:51:29.452Z,5028
2017-01-27T08:52:30.128Z,5264
2017-01-27T08:53:30.815Z,5508
2017-01-27T08:54:31.501Z,5560
2017-01-27T08:55:32.200Z,5980
2017-01-27T08:56:32.905Z,6400
2017-01-27T08:57:33.591Z,6400
2017-01-27T08:58:34.286Z,6304
2017-01-27T08:59:34.957Z,6368
2017-01-27T09:00:35.661Z,6540
2017-01-27T09:01:36.351Z,6612
2017-01-27T09:02:37.059Z,6836
2017-01-27T09:03:37.757Z,7172
2017-01-27T09:04:38.437Z,7140
2017-01-27T09:05:39.123Z,7032
2017-01-27T09:06:39.794Z,6024
2017-01-27T09:07:40.487Z,4284
2017-01-27T09:08:41.191Z,3860
2017-01-27T09:09:41.887Z,3832
2017-01-27T09:10:42.682Z,3876
2017-01-27T09:11:43.370Z,3860
2017-01-27T09:12:44.076Z,3892
2017-01-27T09:13:44.762Z,3924
2017-01-27T09:14:46.051Z,3924
2017-01-27T09:15:46.803Z,3888
2017-01-27T09:16:47.695Z,3852
2017-01-27T09:17:48.610Z,3844
2017-01-27T09:18:50.117Z,3860
2017-01-27T09:19:51.613Z,3844
2017-01-27T09:20:52.692Z,3836
2017-01-27T09:21:53.930Z,3796
2017-01-27T09:22:54.616Z,3836
2017-01-27T09:23:55.683Z,3832
2017-01-27T09:24:56.848Z,3844
2017-01-27T09:25:57.912Z,3864
2017-01-27T09:26:58.610Z,3864
2017-01-27T09:27:59.307Z,3860
2017-01-27T09:29:00.091Z,3880
2017-01-27T09:30:00.770Z,3852
2017-01-27T09:31:01.521Z,3868
2017-01-27T09:32:02.215Z,3864
2017-01-27T09:33:02.907Z,3856
2017-01-27T09:34:03.606Z,3856
2017-01-27T09:35:04.293Z,3824
2017-01-27T09:36:04.990Z,3820
2017-01-27T09:37:05.679Z,3832
2017-01-27T09:38:06.350Z,3848
2017-01-27T09:39:07.035Z,3848
2017-01-27T09:40:07.740Z,3876
2017-01-27T09:41:08.464Z,3876
2017-01-27T09:42:09.150Z,3880
2017-01-27T09:43:09.840Z,3864
2017-01-27T09:44:10.529Z,3848
2017-01-27T09:45:11.231Z,3852
2017-01-27T09:46:11.923Z,3840
2017-01-27T09:47:12.605Z,3840
2017-01-27T09:48:13.289Z,3848
2017-01-27T09:49:13.998Z,3836
2017-01-27T09:50:14.705Z,3800
2017-01-27T09:51:15.447Z,3804
2017-01-27T09:52:16.127Z,3800
2017-01-27T09:53:16.808Z,3804
2017-01-27T09:54:17.510Z,3824
2017-01-27T09:55:18.228Z,3832
2017-01-27T09:56:18.986Z,3832
2017-01-27T09:57:19.677Z,3828
2017-01-27T09:58:20.404Z,3816
2017-01-27T09:59:21.197Z,3784
2017-01-27T10:00:21.873Z,3788
2017-01-27T10:01:22.650Z,3784
2017-01-27T10:02:23.367Z,3792
2017-01-27T10:03:24.078Z,3796
2017-01-27T10:04:24.778Z,3768
2017-01-27T10:05:25.466Z,3768
2017-01-27T10:06:26.200Z,3752
2017-01-27T10:07:26.903Z,3760
2017-01-27T10:08:27.618Z,3764
2017-01-27T10:09:28.320Z,3756
2017-01-27T10:10:29.033Z,3760
2017-01-27T10:11:29.704Z,3752
2017-01-27T10:12:30.396Z,3732
2017-01-27T10:13:31.249Z,3736
2017-01-27T10:14:31.997Z,3744
2017-01-27T10:15:32.706Z,3748
2017-01-27T10:16:33.408Z,3756
2017-01-27T10:17:34.161Z,3744
2017-01-27T10:18:34.866Z,3736
2017-01-27T10:19:35.555Z,3720
2017-01-27T10:20:36.263Z,3724
2017-01-27T10:21:36.932Z,3716
2017-01-27T10:22:37.621Z,3720
2017-01-27T10:23:38.326Z,3720
2017-01-27T10:24:39.030Z,3708
2017-01-27T10:25:39.736Z,3696
2017-01-27T10:26:40.415Z,3680
2017-01-27T10:27:41.122Z,3672
2017-01-27T10:28:41.814Z,3660
2017-01-27T10:29:42.494Z,3676
2017-01-27T10:30:43.267Z,3672
2017-01-27T10:31:43.976Z,3668
2017-01-27T10:32:44.661Z,3664
2017-01-27T10:33:45.339Z,3664
2017-01-27T10:34:46.018Z,3676
2017-01-27T10:35:46.688Z,3684
2017-01-27T10:36:47.362Z,3656
2017-01-27T10:37:48.041Z,3664
2017-01-27T10:38:48.709Z,3660
2017-01-27T10:39:49.387Z,3644
2017-01-27T10:40:50.072Z,3636
2017-01-27T10:41:50.793Z,3624
2017-01-27T10:42:51.491Z,3620
2017-01-27T10:43:52.173Z,3628
2017-01-27T10:44:52.871Z,3632
2017-01-27T10:45:53.928Z,3620
2017-01-27T10:46:54.628Z,3620
2017-01-27T10:47:55.321Z,3608
2017-01-27T10:48:56.021Z,3612
2017-01-27T10:49:56.702Z,3596
2017-01-27T10:50:57.382Z,3600
2017-01-27T10:51:58.359Z,3600
2017-01-27T10:52:59.072Z,3596
2017-01-27T10:53:59.785Z,3592
2017-01-27T10:55:00.473Z,3584
2017-01-27T10:56:01.179Z,3572
2017-01-27T10:57:01.852Z,3560
2017-01-27T10:58:02.608Z,3556
2017-01-27T10:59:03.354Z,3556
2017-01-27T11:00:04.074Z,3548
2017-01-27T11:01:04.810Z,3544
2017-01-27T11:02:05.458Z,3544
2017-01-27T11:03:06.147Z,3548
2017-01-27T11:04:07.214Z,3540
2017-01-27T11:05:08.026Z,3524
2017-01-27T11:06:08.724Z,3516
2017-01-27T11:07:09.513Z,3496
2017-01-27T11:08:10.190Z,3492
2017-01-27T11:09:10.858Z,3492
2017-01-27T11:10:11.548Z,3492
2017-01-27T11:11:12.249Z,3488
2017-01-27T11:12:12.936Z,3464
2017-01-27T11:13:13.656Z,3432
2017-01-27T11:14:14.380Z,3432
2017-01-27T11:15:15.062Z,3436
2017-01-27T11:16:15.769Z,3428
2017-01-27T11:17:16.451Z,3428
2017-01-27T11:18:17.495Z,3424
2017-01-27T11:19:18.473Z,3424
2017-01-27T11:20:19.346Z,3416
2017-01-27T11:21:19.942Z,3400
2017-01-27T11:22:20.730Z,3392
2017-01-27T11:23:22.210Z,3396
2017-01-27T11:24:23.173Z,3392
2017-01-27T11:25:24.339Z,3396
2017-01-27T11:26:25.945Z,3384
2017-01-27T11:27:26.793Z,3388
2017-01-27T11:28:27.674Z,3400
2017-01-27T11:29:28.250Z,3384
2017-01-27T11:30:28.993Z,3380
2017-01-27T11:31:29.678Z,3380
2017-01-27T11:32:30.373Z,3368
2017-01-27T11:33:31.151Z,3360
2017-01-27T11:34:31.884Z,3360
2017-01-27T11:35:32.694Z,3340
2017-01-27T11:36:33.992Z,3340
2017-01-27T11:37:34.884Z,3336
2017-01-27T11:38:35.565Z,3328
2017-01-27T11:39:36.382Z,3320
2017-01-27T11:40:37.011Z,3312
2017-01-27T11:41:37.732Z,3312
2017-01-27T11:42:38.424Z,3308
2017-01-27T11:43:39.114Z,3308
2017-01-27T11:44:39.810Z,3296
2017-01-27T11:45:40.520Z,3276
2017-01-27T11:46:41.195Z,3264
2017-01-27T11:47:41.872Z,3256
2017-01-27T11:48:42.552Z,3240
2017-01-27T11:49:43.239Z,3224
2017-01-27T11:50:43.928Z,3228
2017-01-27T11:51:44.615Z,3228
2017-01-27T11:52:45.292Z,3232
2017-01-27T11:53:46.017Z,3228
2017-01-27T11:54:46.835Z,3212
2017-01-27T11:55:47.457Z,3208
2017-01-27T11:56:48.566Z,3212
2017-01-27T11:57:49.096Z,3208
2017-01-27T11:58:50.133Z,3208
2017-01-27T11:59:51.059Z,3204
2017-01-27T12:00:51.694Z,3196
2017-01-27T12:01:52.407Z,3180
2017-01-27T12:02:53.239Z,3168
2017-01-27T12:03:54.489Z,3156
2017-01-27T12:04:56.025Z,3148
2017-01-27T12:05:56.950Z,3128
2017-01-27T12:06:57.652Z,3116
2017-01-27T12:07:58.560Z,3100
2017-01-27T12:08:59.549Z,3100
2017-01-27T12:10:00.295Z,3104
2017-01-27T12:11:01.207Z,3108
2017-01-27T12:12:01.918Z,3108
2017-01-27T12:13:02.661Z,3104
2017-01-27T12:14:03.389Z,3104
2017-01-27T12:15:04.137Z,3096
2017-01-27T12:16:04.861Z,3092
2017-01-27T12:17:05.603Z,3068
2017-01-27T12:18:06.321Z,3056
2017-01-27T12:19:07.062Z,3056
2017-01-27T12:20:07.838Z,3052
2017-01-27T12:21:08.753Z,3052
2017-01-27T12:22:09.474Z,3044
2017-01-27T12:23:10.178Z,3036
2017-01-27T12:24:10.911Z,3020
2017-01-27T12:25:11.860Z,3020
2017-01-27T12:26:12.770Z,3020
2017-01-27T12:27:13.395Z,3016
2017-01-27T12:28:14.154Z,3008
2017-01-27T12:29:15.021Z,2996
2017-01-27T12:30:15.792Z,2988
2017-01-27T12:31:16.559Z,2984
2017-01-27T12:32:17.266Z,2960
2017-01-27T12:33:18.102Z,2944
2017-01-27T12:34:19.628Z,2944
2017-01-27T12:35:20.615Z,2940
2017-01-27T12:36:21.639Z,2944
2017-01-27T12:37:22.418Z,2940
2017-01-27T12:38:23.106Z,2936
2017-01-27T12:39:23.821Z,2936
2017-01-27T12:40:24.618Z,2924
2017-01-27T12:41:25.357Z,2928
2017-01-27T12:42:26.079Z,2924
2017-01-27T12:43:26.809Z,2912
2017-01-27T12:44:27.586Z,2896
2017-01-27T12:45:28.243Z,2900
2017-01-27T12:46:29.130Z,2896
2017-01-27T12:47:29.876Z,2892
2017-01-27T12:48:30.987Z,2884
2017-01-27T12:49:31.770Z,2880
2017-01-27T12:50:32.514Z,2872
2017-01-27T12:51:33.226Z,2868
2017-01-27T12:52:33.966Z,2864
2017-01-27T12:53:34.674Z,2864
2017-01-27T12:54:35.528Z,2856
2017-01-27T12:55:36.892Z,2852
2017-01-27T12:56:37.704Z,2844
2017-01-27T12:57:38.484Z,2832
2017-01-27T12:58:39.096Z,2820
2017-01-27T12:59:39.877Z,2816
2017-01-27T13:00:40.610Z,2804
2017-01-27T13:01:41.499Z,2792
2017-01-27T13:02:42.248Z,2780
2017-01-27T13:03:42.939Z,2780
2017-01-27T13:04:43.622Z,2772
2017-01-27T13:05:44.293Z,2768
2017-01-27T13:06:44.968Z,2764
2017-01-27T13:07:45.645Z,2760
2017-01-27T13:08:46.335Z,2752
2017-01-27T13:09:47.022Z,2752
2017-01-27T13:10:47.709Z,2748
2017-01-27T13:11:48.378Z,2752
2017-01-27T13:12:49.075Z,2744
2017-01-27T13:13:49.767Z,2728
2017-01-27T13:14:50.437Z,2716
2017-01-27T13:15:51.146Z,2708
2017-01-27T13:16:51.817Z,2692
2017-01-27T13:17:52.498Z,2672
2017-01-27T13:18:53.194Z,2668
2017-01-27T13:19:53.860Z,2660
2017-01-27T13:20:54.568Z,2644
2017-01-27T13:21:55.291Z,2620
2017-01-27T13:22:55.978Z,2596
2017-01-27T13:23:56.645Z,2564
2017-01-27T13:24:57.328Z,2552
2017-01-27T13:25:57.990Z,2536
2017-01-27T13:26:58.713Z,2536
2017-01-27T13:27:59.387Z,2532
2017-01-27T13:29:00.121Z,2516
2017-01-27T13:30:00.810Z,2496
2017-01-27T13:31:01.520Z,2472
2017-01-27T13:32:02.336Z,2452
2017-01-27T13:33:03.049Z,2428
2017-01-27T13:34:03.754Z,2404
2017-01-27T13:35:04.439Z,2384
2017-01-27T13:36:05.157Z,2336
2017-01-27T13:37:05.894Z,2296
2017-01-27T13:38:06.574Z,2264
2017-01-27T13:39:07.358Z,2244
2017-01-27T13:40:08.047Z,2220
2017-01-27T13:41:08.776Z,2176
2017-01-27T13:42:09.482Z,2124
2017-01-27T13:43:10.165Z,2084
2017-01-27T13:44:10.874Z,2048
2017-01-27T13:45:11.559Z,2036
2017-01-27T13:46:12.283Z,2036
2017-01-27T13:47:13.062Z,2020
2017-01-27T13:48:13.808Z,1996
2017-01-27T13:49:14.485Z,1968
2017-01-27T13:50:15.230Z,1948
2017-01-27T13:51:15.923Z,1936
2017-01-27T13:52:16.772Z,1928
2017-01-27T13:53:17.499Z,1912
2017-01-27T13:54:18.216Z,1888
2017-01-27T13:55:18.905Z,1864
2017-01-27T13:56:19.595Z,1848
2017-01-27T13:57:20.283Z,1840
2017-01-27T13:58:20.958Z,1820
2017-01-27T13:59:21.633Z,1796
2017-01-27T14:00:22.393Z,1768
2017-01-27T14:01:23.067Z,1752
2017-01-27T14:02:23.774Z,1752
2017-01-27T14:03:24.449Z,1756
2017-01-27T14:04:25.144Z,1748
2017-01-27T14:05:25.840Z,1728
2017-01-27T14:06:26.573Z,1716
2017-01-27T14:07:27.269Z,1700
2017-01-27T14:08:27.949Z,1684
2017-01-27T14:09:28.625Z,1676
2017-01-27T14:10:29.304Z,1672